ENTC

Tromsø Airport

Tromsø, Norway
METAR ENTC 161220Z 22006KT 180V240 CAVOK M04/M07 Q1018 NOSIG RMK WIND 2600FT /////KT
Observed Flight Rules
Dec-16 @ 12:20 UTC (24 minutes ago) Visual Flight Rules
Wind Visibility Clouds
220° at 6 knots 10,000+ meters
  • Clear skies
Temperatures Readings
Current -4°C / 25°F
Dewpoint -7°C / 19°F
Humidity 80%
Altimeter 30.06" Hg
Pressure 1018 hPa
Elevation 10
METAR ENTC 161220Z 22006KT 180V240 CAVOK M04/M07 Q1018 NOSIG RMK WIND 2600FT /////KT
Observed Flight Rules
Dec-16 @ 12:20 UTC
(24 minutes ago)
VFR
Wind Visibility
220° at 6 knots 10,000+ meters
Clouds
  • Clear skies
Temperature Dewpoint
-4°C / 25°F -7°C / 19°F
Humidity Altimeter Pressure
80% 30.06" Hg 1018 hPa